sensor_id;sensor_type;location;lat;lon;timestamp;P1;durP1;ratioP1;P2;durP2;ratioP2
69188;SDS011;56302;52.322;5.926;2022-07-19T00:00:46;10.00;;;4.75;;
69188;SDS011;56302;52.322;5.926;2022-07-19T00:03:13;9.68;;;4.38;;
69188;SDS011;56302;52.322;5.926;2022-07-19T00:05:46;7.53;;;4.67;;
69188;SDS011;56302;52.322;5.926;2022-07-19T00:08:11;7.97;;;4.28;;
69188;SDS011;56302;52.322;5.926;2022-07-19T00:10:37;8.63;;;4.30;;
69188;SDS011;56302;52.322;5.926;2022-07-19T00:13:02;13.17;;;4.50;;
69188;SDS011;56302;52.322;5.926;2022-07-19T00:15:28;13.00;;;4.70;;
69188;SDS011;56302;52.322;5.926;2022-07-19T00:17:53;12.23;;;4.63;;
69188;SDS011;56302;52.322;5.926;2022-07-19T00:20:20;10.27;;;4.97;;
69188;SDS011;56302;52.322;5.926;2022-07-19T00:23:24;11.93;;;4.95;;
69188;SDS011;56302;52.322;5.926;2022-07-19T00:25:50;10.07;;;4.75;;
69188;SDS011;56302;52.322;5.926;2022-07-19T00:28:16;10.07;;;5.13;;
69188;SDS011;56302;52.322;5.926;2022-07-19T00:30:41;10.30;;;4.70;;
69188;SDS011;56302;52.322;5.926;2022-07-19T00:33:07;13.43;;;5.53;;
69188;SDS011;56302;52.322;5.926;2022-07-19T00:35:36;10.77;;;5.05;;
69188;SDS011;56302;52.322;5.926;2022-07-19T00:38:07;9.65;;;5.55;;
69188;SDS011;56302;52.322;5.926;2022-07-19T00:40:34;8.52;;;5.13;;
69188;SDS011;56302;52.322;5.926;2022-07-19T00:43:00;7.65;;;5.50;;
69188;SDS011;56302;52.322;5.926;2022-07-19T00:45:26;9.50;;;6.27;;
69188;SDS011;56302;52.322;5.926;2022-07-19T00:47:52;10.20;;;5.97;;
69188;SDS011;56302;52.322;5.926;2022-07-19T00:50:18;10.47;;;6.57;;
69188;SDS011;56302;52.322;5.926;2022-07-19T00:52:45;11.07;;;7.13;;
69188;SDS011;56302;52.322;5.926;2022-07-19T00:55:13;11.80;;;7.28;;
69188;SDS011;56302;52.322;5.926;2022-07-19T00:57:40;12.37;;;7.50;;
69188;SDS011;56302;52.322;5.926;2022-07-19T01:00:07;12.05;;;7.85;;
69188;SDS011;56302;52.322;5.926;2022-07-19T01:02:35;20.50;;;8.05;;
69188;SDS011;56302;52.322;5.926;2022-07-19T01:05:01;14.63;;;7.05;;
69188;SDS011;56302;52.322;5.926;2022-07-19T01:07:27;14.43;;;8.13;;
69188;SDS011;56302;52.322;5.926;2022-07-19T01:09:53;12.73;;;8.27;;
69188;SDS011;56302;52.322;5.926;2022-07-19T01:12:19;12.55;;;7.72;;
69188;SDS011;56302;52.322;5.926;2022-07-19T01:14:47;13.33;;;6.93;;
69188;SDS011;56302;52.322;5.926;2022-07-19T01:17:13;10.18;;;7.30;;
69188;SDS011;56302;52.322;5.926;2022-07-19T01:19:39;11.70;;;7.28;;
69188;SDS011;56302;52.322;5.926;2022-07-19T01:22:07;11.77;;;7.27;;
69188;SDS011;56302;52.322;5.926;2022-07-19T01:24:33;11.20;;;7.47;;
69188;SDS011;56302;52.322;5.926;2022-07-19T01:26:59;15.53;;;8.20;;
69188;SDS011;56302;52.322;5.926;2022-07-19T01:29:24;14.67;;;7.47;;
69188;SDS011;56302;52.322;5.926;2022-07-19T01:31:50;14.18;;;7.10;;
69188;SDS011;56302;52.322;5.926;2022-07-19T01:34:15;12.60;;;7.90;;
69188;SDS011;56302;52.322;5.926;2022-07-19T01:36:41;11.57;;;7.75;;
69188;SDS011;56302;52.322;5.926;2022-07-19T01:39:06;10.77;;;7.20;;
69188;SDS011;56302;52.322;5.926;2022-07-19T01:41:32;15.70;;;6.70;;
69188;SDS011;56302;52.322;5.926;2022-07-19T01:43:57;12.55;;;7.80;;
69188;SDS011;56302;52.322;5.926;2022-07-19T01:46:23;12.97;;;7.10;;
69188;SDS011;56302;52.322;5.926;2022-07-19T01:48:49;11.93;;;7.07;;
69188;SDS011;56302;52.322;5.926;2022-07-19T01:51:14;14.87;;;6.00;;
69188;SDS011;56302;52.322;5.926;2022-07-19T01:53:39;11.27;;;6.40;;
69188;SDS011;56302;52.322;5.926;2022-07-19T01:56:05;13.57;;;6.70;;
69188;SDS011;56302;52.322;5.926;2022-07-19T01:58:32;14.77;;;7.40;;
69188;SDS011;56302;52.322;5.926;2022-07-19T02:00:57;12.53;;;7.13;;
69188;SDS011;56302;52.322;5.926;2022-07-19T02:03:23;12.65;;;6.78;;
69188;SDS011;56302;52.322;5.926;2022-07-19T02:05:49;14.50;;;7.57;;
69188;SDS011;56302;52.322;5.926;2022-07-19T02:08:14;15.38;;;7.30;;
69188;SDS011;56302;52.322;5.926;2022-07-19T02:10:40;12.57;;;7.60;;
69188;SDS011;56302;52.322;5.926;2022-07-19T02:13:05;12.80;;;7.35;;
69188;SDS011;56302;52.322;5.926;2022-07-19T02:15:31;10.18;;;7.25;;
69188;SDS011;56302;52.322;5.926;2022-07-19T02:17:57;9.80;;;7.23;;
69188;SDS011;56302;52.322;5.926;2022-07-19T02:20:22;12.30;;;7.07;;
69188;SDS011;56302;52.322;5.926;2022-07-19T02:22:48;11.73;;;6.77;;
69188;SDS011;56302;52.322;5.926;2022-07-19T02:25:13;12.02;;;7.32;;
69188;SDS011;56302;52.322;5.926;2022-07-19T02:27:39;14.63;;;7.17;;
69188;SDS011;56302;52.322;5.926;2022-07-19T02:30:06;13.63;;;6.97;;
69188;SDS011;56302;52.322;5.926;2022-07-19T02:32:33;11.65;;;6.60;;
69188;SDS011;56302;52.322;5.926;2022-07-19T02:34:58;18.40;;;6.80;;
69188;SDS011;56302;52.322;5.926;2022-07-19T02:37:24;11.07;;;6.50;;
69188;SDS011;56302;52.322;5.926;2022-07-19T02:39:49;11.85;;;7.43;;
69188;SDS011;56302;52.322;5.926;2022-07-19T02:42:15;10.83;;;6.50;;
69188;SDS011;56302;52.322;5.926;2022-07-19T02:44:41;11.10;;;6.70;;
69188;SDS011;56302;52.322;5.926;2022-07-19T02:47:06;17.92;;;6.20;;
69188;SDS011;56302;52.322;5.926;2022-07-19T02:49:32;13.70;;;6.10;;
69188;SDS011;56302;52.322;5.926;2022-07-19T02:51:57;13.63;;;5.93;;
69188;SDS011;56302;52.322;5.926;2022-07-19T02:54:23;11.70;;;6.35;;
69188;SDS011;56302;52.322;5.926;2022-07-19T02:56:48;11.40;;;5.80;;
69188;SDS011;56302;52.322;5.926;2022-07-19T02:59:14;8.60;;;5.97;;
69188;SDS011;56302;52.322;5.926;2022-07-19T03:01:39;8.10;;;5.70;;
69188;SDS011;56302;52.322;5.926;2022-07-19T03:04:05;8.23;;;5.43;;
69188;SDS011;56302;52.322;5.926;2022-07-19T03:06:30;11.40;;;6.10;;
69188;SDS011;56302;52.322;5.926;2022-07-19T03:08:56;9.75;;;6.00;;
69188;SDS011;56302;52.322;5.926;2022-07-19T03:11:21;9.93;;;5.77;;
69188;SDS011;56302;52.322;5.926;2022-07-19T03:13:47;9.93;;;7.10;;
69188;SDS011;56302;52.322;5.926;2022-07-19T03:16:12;9.52;;;6.53;;
69188;SDS011;56302;52.322;5.926;2022-07-19T03:18:38;11.77;;;5.80;;
69188;SDS011;56302;52.322;5.926;2022-07-19T03:21:04;11.20;;;6.17;;
69188;SDS011;56302;52.322;5.926;2022-07-19T03:23:33;12.60;;;6.47;;
69188;SDS011;56302;52.322;5.926;2022-07-19T03:26:00;9.50;;;6.10;;
69188;SDS011;56302;52.322;5.926;2022-07-19T03:28:26;9.00;;;5.30;;
69188;SDS011;56302;52.322;5.926;2022-07-19T03:30:52;10.88;;;6.30;;
69188;SDS011;56302;52.322;5.926;2022-07-19T03:33:17;11.10;;;6.07;;
69188;SDS011;56302;52.322;5.926;2022-07-19T03:35:44;16.02;;;6.50;;
69188;SDS011;56302;52.322;5.926;2022-07-19T03:38:10;10.05;;;6.00;;
69188;SDS011;56302;52.322;5.926;2022-07-19T03:40:37;11.30;;;5.95;;
69188;SDS011;56302;52.322;5.926;2022-07-19T03:43:04;10.20;;;6.07;;
69188;SDS011;56302;52.322;5.926;2022-07-19T03:45:30;13.18;;;6.25;;
69188;SDS011;56302;52.322;5.926;2022-07-19T03:47:55;15.65;;;6.45;;
69188;SDS011;56302;52.322;5.926;2022-07-19T03:50:21;13.20;;;6.83;;
69188;SDS011;56302;52.322;5.926;2022-07-19T03:52:47;13.10;;;6.93;;
69188;SDS011;56302;52.322;5.926;2022-07-19T03:55:12;11.45;;;6.65;;
69188;SDS011;56302;52.322;5.926;2022-07-19T03:57:38;12.33;;;6.00;;
69188;SDS011;56302;52.322;5.926;2022-07-19T04:00:04;9.27;;;6.50;;
69188;SDS011;56302;52.322;5.926;2022-07-19T04:02:30;16.63;;;6.07;;
69188;SDS011;56302;52.322;5.926;2022-07-19T04:04:55;11.73;;;6.18;;
69188;SDS011;56302;52.322;5.926;2022-07-19T04:07:21;11.97;;;5.87;;
69188;SDS011;56302;52.322;5.926;2022-07-19T04:09:47;10.87;;;6.07;;
69188;SDS011;56302;52.322;5.926;2022-07-19T04:12:12;10.93;;;5.93;;
69188;SDS011;56302;52.322;5.926;2022-07-19T04:14:38;10.33;;;5.50;;
69188;SDS011;56302;52.322;5.926;2022-07-19T04:17:03;9.73;;;6.00;;
69188;SDS011;56302;52.322;5.926;2022-07-19T04:19:29;8.40;;;5.43;;
69188;SDS011;56302;52.322;5.926;2022-07-19T04:21:56;7.72;;;5.03;;
69188;SDS011;56302;52.322;5.926;2022-07-19T04:24:22;11.20;;;5.87;;
69188;SDS011;56302;52.322;5.926;2022-07-19T04:26:47;9.68;;;6.40;;
69188;SDS011;56302;52.322;5.926;2022-07-19T04:29:13;8.97;;;6.47;;
69188;SDS011;56302;52.322;5.926;2022-07-19T04:31:38;16.90;;;7.03;;
69188;SDS011;56302;52.322;5.926;2022-07-19T04:34:04;16.35;;;6.28;;
69188;SDS011;56302;52.322;5.926;2022-07-19T04:36:30;15.82;;;6.78;;
69188;SDS011;56302;52.322;5.926;2022-07-19T04:38:56;13.20;;;5.60;;
69188;SDS011;56302;52.322;5.926;2022-07-19T04:41:21;12.37;;;5.87;;
69188;SDS011;56302;52.322;5.926;2022-07-19T04:43:47;12.95;;;6.47;;
69188;SDS011;56302;52.322;5.926;2022-07-19T04:46:12;15.37;;;6.70;;
69188;SDS011;56302;52.322;5.926;2022-07-19T04:48:38;14.60;;;6.53;;
69188;SDS011;56302;52.322;5.926;2022-07-19T04:51:05;16.90;;;6.20;;
69188;SDS011;56302;52.322;5.926;2022-07-19T04:53:31;12.48;;;6.30;;
69188;SDS011;56302;52.322;5.926;2022-07-19T04:55:57;12.73;;;6.50;;
69188;SDS011;56302;52.322;5.926;2022-07-19T04:58:22;12.77;;;6.33;;
69188;SDS011;56302;52.322;5.926;2022-07-19T05:00:48;9.88;;;6.05;;
69188;SDS011;56302;52.322;5.926;2022-07-19T05:03:13;13.93;;;6.20;;
69188;SDS011;56302;52.322;5.926;2022-07-19T05:05:39;11.30;;;6.23;;
69188;SDS011;56302;52.322;5.926;2022-07-19T05:08:05;14.57;;;6.53;;
69188;SDS011;56302;52.322;5.926;2022-07-19T05:10:30;10.27;;;6.47;;
69188;SDS011;56302;52.322;5.926;2022-07-19T05:12:56;9.93;;;6.53;;
69188;SDS011;56302;52.322;5.926;2022-07-19T05:15:21;13.57;;;6.20;;
69188;SDS011;56302;52.322;5.926;2022-07-19T05:17:47;10.63;;;6.73;;
69188;SDS011;56302;52.322;5.926;2022-07-19T05:20:12;13.23;;;6.60;;
69188;SDS011;56302;52.322;5.926;2022-07-19T05:22:40;11.63;;;6.20;;
69188;SDS011;56302;52.322;5.926;2022-07-19T05:25:06;13.85;;;7.00;;
69188;SDS011;56302;52.322;5.926;2022-07-19T05:27:32;16.50;;;6.20;;
69188;SDS011;56302;52.322;5.926;2022-07-19T05:29:57;15.75;;;6.40;;
69188;SDS011;56302;52.322;5.926;2022-07-19T05:32:23;18.37;;;7.27;;
69188;SDS011;56302;52.322;5.926;2022-07-19T05:34:48;12.77;;;7.00;;
69188;SDS011;56302;52.322;5.926;2022-07-19T05:37:14;12.50;;;6.70;;
69188;SDS011;56302;52.322;5.926;2022-07-19T05:39:39;14.10;;;7.07;;
69188;SDS011;56302;52.322;5.926;2022-07-19T05:42:05;24.87;;;6.80;;
69188;SDS011;56302;52.322;5.926;2022-07-19T05:44:30;11.95;;;7.07;;
69188;SDS011;56302;52.322;5.926;2022-07-19T05:46:56;17.20;;;8.13;;
69188;SDS011;56302;52.322;5.926;2022-07-19T05:49:22;18.17;;;7.50;;
69188;SDS011;56302;52.322;5.926;2022-07-19T05:51:47;28.30;;;11.07;;
69188;SDS011;56302;52.322;5.926;2022-07-19T05:54:12;23.20;;;12.53;;
69188;SDS011;56302;52.322;5.926;2022-07-19T05:56:38;19.97;;;11.80;;
69188;SDS011;56302;52.322;5.926;2022-07-19T05:59:04;20.92;;;13.70;;
69188;SDS011;56302;52.322;5.926;2022-07-19T06:01:29;17.63;;;13.03;;
69188;SDS011;56302;52.322;5.926;2022-07-19T06:03:56;23.52;;;14.00;;
69188;SDS011;56302;52.322;5.926;2022-07-19T06:06:23;22.67;;;12.80;;
69188;SDS011;56302;52.322;5.926;2022-07-19T06:08:51;18.45;;;13.70;;
69188;SDS011;56302;52.322;5.926;2022-07-19T06:11:16;20.63;;;14.48;;
69188;SDS011;56302;52.322;5.926;2022-07-19T06:13:43;18.80;;;13.77;;
69188;SDS011;56302;52.322;5.926;2022-07-19T06:16:09;25.52;;;13.40;;
69188;SDS011;56302;52.322;5.926;2022-07-19T06:18:36;19.65;;;13.55;;
69188;SDS011;56302;52.322;5.926;2022-07-19T06:21:03;17.45;;;12.50;;
69188;SDS011;56302;52.322;5.926;2022-07-19T06:23:31;18.17;;;11.98;;
69188;SDS011;56302;52.322;5.926;2022-07-19T06:25:57;20.57;;;11.70;;
69188;SDS011;56302;52.322;5.926;2022-07-19T06:28:22;20.20;;;12.17;;
69188;SDS011;56302;52.322;5.926;2022-07-19T06:30:48;15.98;;;10.40;;
69188;SDS011;56302;52.322;5.926;2022-07-19T06:33:14;16.07;;;11.13;;
69188;SDS011;56302;52.322;5.926;2022-07-19T06:35:40;14.73;;;9.45;;
69188;SDS011;56302;52.322;5.926;2022-07-19T06:38:06;17.85;;;10.27;;
69188;SDS011;56302;52.322;5.926;2022-07-19T06:40:32;20.53;;;10.43;;
69188;SDS011;56302;52.322;5.926;2022-07-19T06:42:57;20.60;;;8.95;;
69188;SDS011;56302;52.322;5.926;2022-07-19T06:45:23;13.53;;;9.67;;
69188;SDS011;56302;52.322;5.926;2022-07-19T06:47:48;13.13;;;9.13;;
69188;SDS011;56302;52.322;5.926;2022-07-19T06:50:16;17.87;;;9.43;;
69188;SDS011;56302;52.322;5.926;2022-07-19T06:52:42;16.52;;;8.80;;
69188;SDS011;56302;52.322;5.926;2022-07-19T06:55:08;15.63;;;9.02;;
69188;SDS011;56302;52.322;5.926;2022-07-19T06:57:34;14.33;;;8.03;;
69188;SDS011;56302;52.322;5.926;2022-07-19T06:59:59;13.80;;;8.80;;
69188;SDS011;56302;52.322;5.926;2022-07-19T07:02:25;11.23;;;7.63;;
69188;SDS011;56302;52.322;5.926;2022-07-19T07:04:50;15.43;;;8.97;;
69188;SDS011;56302;52.322;5.926;2022-07-19T07:07:16;15.40;;;8.47;;
69188;SDS011;56302;52.322;5.926;2022-07-19T07:09:42;12.47;;;8.00;;
69188;SDS011;56302;52.322;5.926;2022-07-19T07:12:07;13.27;;;8.65;;
69188;SDS011;56302;52.322;5.926;2022-07-19T07:14:33;14.43;;;7.63;;
69188;SDS011;56302;52.322;5.926;2022-07-19T07:16:59;12.47;;;8.00;;
69188;SDS011;56302;52.322;5.926;2022-07-19T07:19:25;11.43;;;7.57;;
69188;SDS011;56302;52.322;5.926;2022-07-19T07:21:51;16.57;;;7.30;;
69188;SDS011;56302;52.322;5.926;2022-07-19T07:24:16;10.63;;;7.85;;
69188;SDS011;56302;52.322;5.926;2022-07-19T07:26:42;14.27;;;8.70;;
69188;SDS011;56302;52.322;5.926;2022-07-19T07:29:07;10.83;;;8.00;;
69188;SDS011;56302;52.322;5.926;2022-07-19T07:31:33;13.00;;;7.60;;
69188;SDS011;56302;52.322;5.926;2022-07-19T07:33:58;11.17;;;7.07;;
69188;SDS011;56302;52.322;5.926;2022-07-19T07:36:24;11.27;;;7.60;;
69188;SDS011;56302;52.322;5.926;2022-07-19T07:38:50;15.53;;;7.90;;
69188;SDS011;56302;52.322;5.926;2022-07-19T07:41:15;13.33;;;8.00;;
69188;SDS011;56302;52.322;5.926;2022-07-19T07:43:41;12.60;;;8.43;;
69188;SDS011;56302;52.322;5.926;2022-07-19T07:46:06;14.60;;;8.03;;
69188;SDS011;56302;52.322;5.926;2022-07-19T07:48:32;14.87;;;6.83;;
69188;SDS011;56302;52.322;5.926;2022-07-19T07:50:57;14.40;;;5.82;;
69188;SDS011;56302;52.322;5.926;2022-07-19T07:53:23;14.03;;;7.83;;
69188;SDS011;56302;52.322;5.926;2022-07-19T07:55:48;16.97;;;8.87;;
69188;SDS011;56302;52.322;5.926;2022-07-19T07:58:14;12.13;;;7.10;;
69188;SDS011;56302;52.322;5.926;2022-07-19T08:00:40;12.20;;;5.90;;
69188;SDS011;56302;52.322;5.926;2022-07-19T08:03:06;14.43;;;7.50;;
69188;SDS011;56302;52.322;5.926;2022-07-19T08:05:32;20.97;;;8.40;;
69188;SDS011;56302;52.322;5.926;2022-07-19T08:07:58;14.07;;;8.30;;
69188;SDS011;56302;52.322;5.926;2022-07-19T08:10:25;12.30;;;7.90;;
69188;SDS011;56302;52.322;5.926;2022-07-19T08:12:53;12.30;;;7.22;;
69188;SDS011;56302;52.322;5.926;2022-07-19T08:15:19;13.37;;;8.10;;
69188;SDS011;56302;52.322;5.926;2022-07-19T08:17:45;19.70;;;10.00;;
69188;SDS011;56302;52.322;5.926;2022-07-19T08:20:11;15.70;;;9.13;;
69188;SDS011;56302;52.322;5.926;2022-07-19T08:22:37;14.18;;;8.82;;
69188;SDS011;56302;52.322;5.926;2022-07-19T08:25:03;16.27;;;6.57;;
69188;SDS011;56302;52.322;5.926;2022-07-19T08:27:29;13.68;;;5.93;;
69188;SDS011;56302;52.322;5.926;2022-07-19T08:29:55;12.53;;;6.40;;
69188;SDS011;56302;52.322;5.926;2022-07-19T08:32:20;15.63;;;7.38;;
69188;SDS011;56302;52.322;5.926;2022-07-19T08:34:46;12.03;;;5.93;;
69188;SDS011;56302;52.322;5.926;2022-07-19T08:37:12;12.90;;;6.70;;
69188;SDS011;56302;52.322;5.926;2022-07-19T08:39:37;14.55;;;7.43;;
69188;SDS011;56302;52.322;5.926;2022-07-19T08:42:03;12.87;;;5.67;;
69188;SDS011;56302;52.322;5.926;2022-07-19T08:44:29;11.23;;;5.70;;
69188;SDS011;56302;52.322;5.926;2022-07-19T08:46:55;8.90;;;4.55;;
69188;SDS011;56302;52.322;5.926;2022-07-19T08:49:20;13.52;;;7.25;;
69188;SDS011;56302;52.322;5.926;2022-07-19T08:51:47;12.20;;;5.57;;
69188;SDS011;56302;52.322;5.926;2022-07-19T08:54:13;13.43;;;4.60;;
69188;SDS011;56302;52.322;5.926;2022-07-19T08:56:39;11.55;;;4.97;;
69188;SDS011;56302;52.322;5.926;2022-07-19T08:59:40;12.45;;;5.65;;
69188;SDS011;56302;52.322;5.926;2022-07-19T09:02:06;13.37;;;4.93;;
69188;SDS011;56302;52.322;5.926;2022-07-19T09:04:32;10.88;;;4.60;;
69188;SDS011;56302;52.322;5.926;2022-07-19T09:06:57;10.57;;;4.50;;
69188;SDS011;56302;52.322;5.926;2022-07-19T09:09:25;10.10;;;4.00;;
69188;SDS011;56302;52.322;5.926;2022-07-19T09:11:53;11.90;;;3.92;;
69188;SDS011;56302;52.322;5.926;2022-07-19T09:14:34;8.18;;;3.22;;
69188;SDS011;56302;52.322;5.926;2022-07-19T09:19:29;9.75;;;4.50;;
69188;SDS011;56302;52.322;5.926;2022-07-19T09:24:32;9.38;;;3.17;;
69188;SDS011;56302;52.322;5.926;2022-07-19T09:26:59;10.77;;;3.92;;
69188;SDS011;56302;52.322;5.926;2022-07-19T09:29:30;9.23;;;3.80;;
69188;SDS011;56302;52.322;5.926;2022-07-19T09:32:07;12.27;;;3.55;;
69188;SDS011;56302;52.322;5.926;2022-07-19T09:34:42;9.53;;;3.50;;
69188;SDS011;56302;52.322;5.926;2022-07-19T09:37:22;8.93;;;3.35;;
69188;SDS011;56302;52.322;5.926;2022-07-19T09:39:49;8.93;;;3.85;;
69188;SDS011;56302;52.322;5.926;2022-07-19T09:42:18;8.40;;;2.90;;
69188;SDS011;56302;52.322;5.926;2022-07-19T09:45:09;10.25;;;3.47;;
69188;SDS011;56302;52.322;5.926;2022-07-19T09:47:36;8.10;;;3.03;;
69188;SDS011;56302;52.322;5.926;2022-07-19T09:50:13;7.88;;;3.45;;
69188;SDS011;56302;52.322;5.926;2022-07-19T09:52:44;13.45;;;3.35;;
69188;SDS011;56302;52.322;5.926;2022-07-19T09:55:10;9.05;;;3.15;;
69188;SDS011;56302;52.322;5.926;2022-07-19T09:57:40;9.23;;;3.60;;
69188;SDS011;56302;52.322;5.926;2022-07-19T10:00:09;11.20;;;3.22;;
69188;SDS011;56302;52.322;5.926;2022-07-19T10:02:37;13.77;;;3.45;;
69188;SDS011;56302;52.322;5.926;2022-07-19T10:05:04;8.90;;;3.35;;
69188;SDS011;56302;52.322;5.926;2022-07-19T10:07:33;11.57;;;3.42;;
69188;SDS011;56302;52.322;5.926;2022-07-19T10:10:06;8.87;;;3.13;;
69188;SDS011;56302;52.322;5.926;2022-07-19T10:12:35;9.25;;;3.40;;
69188;SDS011;56302;52.322;5.926;2022-07-19T10:15:03;10.00;;;3.40;;
69188;SDS011;56302;52.322;5.926;2022-07-19T10:17:34;11.15;;;3.30;;
69188;SDS011;56302;52.322;5.926;2022-07-19T10:20:03;10.00;;;3.00;;
69188;SDS011;56302;52.322;5.926;2022-07-19T10:22:32;8.77;;;3.13;;
69188;SDS011;56302;52.322;5.926;2022-07-19T10:24:58;6.60;;;2.97;;
69188;SDS011;56302;52.322;5.926;2022-07-19T10:27:41;6.55;;;3.33;;
69188;SDS011;56302;52.322;5.926;2022-07-19T10:32:38;9.10;;;3.17;;
69188;SDS011;56302;52.322;5.926;2022-07-19T10:37:53;8.18;;;2.92;;
69188;SDS011;56302;52.322;5.926;2022-07-19T10:43:10;6.43;;;2.67;;
69188;SDS011;56302;52.322;5.926;2022-07-19T10:45:38;6.97;;;3.00;;
69188;SDS011;56302;52.322;5.926;2022-07-19T10:48:10;5.70;;;2.70;;
69188;SDS011;56302;52.322;5.926;2022-07-19T10:50:51;7.35;;;2.50;;
69188;SDS011;56302;52.322;5.926;2022-07-19T10:56:18;7.30;;;2.90;;
69188;SDS011;56302;52.322;5.926;2022-07-19T10:58:48;8.05;;;2.97;;
69188;SDS011;56302;52.322;5.926;2022-07-19T11:01:16;7.70;;;3.13;;
69188;SDS011;56302;52.322;5.926;2022-07-19T11:03:43;6.13;;;2.70;;
69188;SDS011;56302;52.322;5.926;2022-07-19T11:06:10;7.97;;;3.05;;
69188;SDS011;56302;52.322;5.926;2022-07-19T11:08:48;7.80;;;3.00;;
69188;SDS011;56302;52.322;5.926;2022-07-19T11:11:17;6.80;;;2.72;;
69188;SDS011;56302;52.322;5.926;2022-07-19T11:13:44;10.37;;;3.37;;
69188;SDS011;56302;52.322;5.926;2022-07-19T11:16:11;7.35;;;2.80;;
69188;SDS011;56302;52.322;5.926;2022-07-19T11:18:37;9.57;;;3.05;;
69188;SDS011;56302;52.322;5.926;2022-07-19T11:21:04;4.67;;;2.80;;
69188;SDS011;56302;52.322;5.926;2022-07-19T11:23:31;7.72;;;2.90;;
69188;SDS011;56302;52.322;5.926;2022-07-19T11:26:04;7.95;;;2.80;;
69188;SDS011;56302;52.322;5.926;2022-07-19T11:28:44;6.32;;;3.10;;
69188;SDS011;56302;52.322;5.926;2022-07-19T11:31:14;11.68;;;3.53;;
69188;SDS011;56302;52.322;5.926;2022-07-19T11:33:41;9.57;;;2.57;;
69188;SDS011;56302;52.322;5.926;2022-07-19T11:36:09;8.15;;;3.20;;
69188;SDS011;56302;52.322;5.926;2022-07-19T11:38:42;5.05;;;2.70;;
69188;SDS011;56302;52.322;5.926;2022-07-19T11:43:55;5.82;;;2.65;;
69188;SDS011;56302;52.322;5.926;2022-07-19T11:46:23;7.67;;;2.20;;
69188;SDS011;56302;52.322;5.926;2022-07-19T11:48:54;5.82;;;2.90;;
69188;SDS011;56302;52.322;5.926;2022-07-19T11:51:21;6.53;;;2.90;;
69188;SDS011;56302;52.322;5.926;2022-07-19T11:53:48;9.63;;;3.00;;
69188;SDS011;56302;52.322;5.926;2022-07-19T11:56:37;8.20;;;2.78;;
69188;SDS011;56302;52.322;5.926;2022-07-19T11:59:05;5.28;;;2.67;;
69188;SDS011;56302;52.322;5.926;2022-07-19T12:01:35;5.72;;;2.60;;
69188;SDS011;56302;52.322;5.926;2022-07-19T12:04:03;9.43;;;2.72;;
69188;SDS011;56302;52.322;5.926;2022-07-19T12:06:46;8.77;;;2.70;;
69188;SDS011;56302;52.322;5.926;2022-07-19T12:09:17;10.43;;;2.90;;
69188;SDS011;56302;52.322;5.926;2022-07-19T12:11:50;6.97;;;2.70;;
69188;SDS011;56302;52.322;5.926;2022-07-19T12:14:21;8.95;;;2.65;;
69188;SDS011;56302;52.322;5.926;2022-07-19T12:16:48;6.13;;;2.53;;
69188;SDS011;56302;52.322;5.926;2022-07-19T12:19:14;4.50;;;2.43;;
69188;SDS011;56302;52.322;5.926;2022-07-19T12:21:44;8.32;;;2.90;;
69188;SDS011;56302;52.322;5.926;2022-07-19T12:24:25;6.03;;;2.58;;
69188;SDS011;56302;52.322;5.926;2022-07-19T12:26:53;6.27;;;2.83;;
69188;SDS011;56302;52.322;5.926;2022-07-19T12:29:28;8.70;;;2.47;;
69188;SDS011;56302;52.322;5.926;2022-07-19T12:32:03;5.10;;;2.58;;
69188;SDS011;56302;52.322;5.926;2022-07-19T12:34:40;5.35;;;2.92;;
69188;SDS011;56302;52.322;5.926;2022-07-19T12:39:57;5.67;;;2.40;;
69188;SDS011;56302;52.322;5.926;2022-07-19T12:42:25;6.57;;;3.15;;
69188;SDS011;56302;52.322;5.926;2022-07-19T12:44:50;6.85;;;2.83;;
69188;SDS011;56302;52.322;5.926;2022-07-19T12:47:16;5.90;;;2.77;;
69188;SDS011;56302;52.322;5.926;2022-07-19T12:49:43;8.40;;;2.90;;
69188;SDS011;56302;52.322;5.926;2022-07-19T12:52:10;4.83;;;2.70;;
69188;SDS011;56302;52.322;5.926;2022-07-19T12:54:36;10.15;;;3.10;;
69188;SDS011;56302;52.322;5.926;2022-07-19T12:57:02;6.70;;;2.40;;
69188;SDS011;56302;52.322;5.926;2022-07-19T12:59:27;7.30;;;2.47;;
69188;SDS011;56302;52.322;5.926;2022-07-19T13:02:14;5.20;;;2.60;;
69188;SDS011;56302;52.322;5.926;2022-07-19T13:04:41;8.18;;;2.70;;
69188;SDS011;56302;52.322;5.926;2022-07-19T13:07:09;7.00;;;2.50;;
69188;SDS011;56302;52.322;5.926;2022-07-19T13:09:36;7.28;;;2.97;;
69188;SDS011;56302;52.322;5.926;2022-07-19T13:12:03;8.20;;;2.80;;
69188;SDS011;56302;52.322;5.926;2022-07-19T13:14:30;10.02;;;2.75;;
69188;SDS011;56302;52.322;5.926;2022-07-19T13:16:56;6.68;;;2.47;;
69188;SDS011;56302;52.322;5.926;2022-07-19T13:19:23;7.20;;;2.67;;
69188;SDS011;56302;52.322;5.926;2022-07-19T13:21:49;6.78;;;2.55;;
69188;SDS011;56302;52.322;5.926;2022-07-19T13:24:15;5.57;;;2.80;;
69188;SDS011;56302;52.322;5.926;2022-07-19T13:26:44;7.72;;;2.50;;
69188;SDS011;56302;52.322;5.926;2022-07-19T13:29:10;7.10;;;2.77;;
69188;SDS011;56302;52.322;5.926;2022-07-19T13:31:36;4.87;;;2.67;;
69188;SDS011;56302;52.322;5.926;2022-07-19T13:34:02;7.90;;;2.53;;
69188;SDS011;56302;52.322;5.926;2022-07-19T13:36:31;9.93;;;3.47;;
69188;SDS011;56302;52.322;5.926;2022-07-19T13:38:56;6.13;;;2.40;;
69188;SDS011;56302;52.322;5.926;2022-07-19T13:41:22;8.70;;;3.13;;
69188;SDS011;56302;52.322;5.926;2022-07-19T13:43:47;5.90;;;2.43;;
69188;SDS011;56302;52.322;5.926;2022-07-19T13:46:13;6.80;;;2.60;;
69188;SDS011;56302;52.322;5.926;2022-07-19T13:48:39;8.50;;;2.30;;
69188;SDS011;56302;52.322;5.926;2022-07-19T13:51:06;7.90;;;2.80;;
69188;SDS011;56302;52.322;5.926;2022-07-19T13:53:34;5.63;;;3.05;;
69188;SDS011;56302;52.322;5.926;2022-07-19T13:56:00;6.93;;;2.43;;
69188;SDS011;56302;52.322;5.926;2022-07-19T13:58:26;5.70;;;2.40;;
69188;SDS011;56302;52.322;5.926;2022-07-19T14:00:51;6.60;;;2.77;;
69188;SDS011;56302;52.322;5.926;2022-07-19T14:03:17;6.40;;;2.53;;
69188;SDS011;56302;52.322;5.926;2022-07-19T14:05:43;6.30;;;2.23;;
69188;SDS011;56302;52.322;5.926;2022-07-19T14:08:10;5.32;;;2.90;;
69188;SDS011;56302;52.322;5.926;2022-07-19T14:10:36;6.88;;;2.75;;
69188;SDS011;56302;52.322;5.926;2022-07-19T14:13:03;7.88;;;2.60;;
69188;SDS011;56302;52.322;5.926;2022-07-19T14:15:29;7.47;;;2.63;;
69188;SDS011;56302;52.322;5.926;2022-07-19T14:17:55;6.33;;;2.53;;
69188;SDS011;56302;52.322;5.926;2022-07-19T14:20:21;8.20;;;2.40;;
69188;SDS011;56302;52.322;5.926;2022-07-19T14:22:47;6.20;;;2.50;;
69188;SDS011;56302;52.322;5.926;2022-07-19T14:25:13;4.83;;;2.20;;
69188;SDS011;56302;52.322;5.926;2022-07-19T14:27:38;5.93;;;2.30;;
69188;SDS011;56302;52.322;5.926;2022-07-19T14:30:04;4.93;;;2.55;;
69188;SDS011;56302;52.322;5.926;2022-07-19T14:32:30;12.07;;;2.70;;
69188;SDS011;56302;52.322;5.926;2022-07-19T14:34:55;8.30;;;2.67;;
69188;SDS011;56302;52.322;5.926;2022-07-19T14:37:21;6.25;;;2.78;;
69188;SDS011;56302;52.322;5.926;2022-07-19T14:39:46;5.90;;;2.60;;
69188;SDS011;56302;52.322;5.926;2022-07-19T14:42:12;9.83;;;2.80;;
69188;SDS011;56302;52.322;5.926;2022-07-19T14:44:38;10.52;;;3.05;;
69188;SDS011;56302;52.322;5.926;2022-07-19T14:47:03;8.10;;;3.00;;
69188;SDS011;56302;52.322;5.926;2022-07-19T14:49:29;7.80;;;2.73;;
69188;SDS011;56302;52.322;5.926;2022-07-19T14:51:54;7.20;;;2.67;;
69188;SDS011;56302;52.322;5.926;2022-07-19T14:54:20;7.10;;;3.10;;
69188;SDS011;56302;52.322;5.926;2022-07-19T14:56:45;9.10;;;2.47;;
69188;SDS011;56302;52.322;5.926;2022-07-19T14:59:11;6.18;;;3.25;;